Time;durP1;ratioP1;P1;durP2;ratioP2;P2;SDS_P1;SDS_P2;PMS_P1;PMS_P2;Temp;Humidity;BMP_temperature;BMP_pressure;BME280_temperature;BME280_humidity;BME280_pressure;Samples;Min_cycle;Max_cycle;Signal;HPM_P1;HPM_P2
2021/12/17 00:05:43;;;;;;;21.52;12.32;;;8.90;77.10;;;;;;5056480;28;20027;-80
2021/12/17 00:08:09;;;;;;;22.80;12.02;;;8.90;77.20;;;;;;5048245;28;20053;-80
2021/12/17 00:10:55;;;;;;;20.85;11.73;;;8.80;77.30;;;;;;5036011;28;20025;-80
2021/12/17 00:13:21;;;;;;;22.05;12.52;;;8.80;77.50;;;;;;5036411;28;20076;-80
2021/12/17 00:15:47;;;;;;;21.80;12.35;;;8.80;77.40;;;;;;5034978;28;20512;-80
2021/12/17 00:18:56;;;;;;;24.95;12.40;;;8.80;77.50;;;;;;5036817;28;20033;-80
2021/12/17 00:49:38;;;;;;;25.45;12.57;;;8.50;78.30;;;;;;5035847;28;20028;-79
2021/12/17 00:52:05;;;;;;;24.40;12.27;;;8.50;78.40;;;;;;5034217;28;20065;-80
2021/12/17 00:54:46;;;;;;;25.02;11.77;;;8.40;78.60;;;;;;5050395;28;20061;-80
2021/12/17 00:57:18;;;;;;;24.48;11.48;;;8.40;78.50;;;;;;5044643;28;20484;-80
2021/12/17 01:00:05;;;;;;;27.75;14.07;;;8.40;78.40;;;;;;5035693;28;20017;-80
2021/12/17 01:02:34;;;;;;;23.50;13.05;;;8.50;78.40;;;;;;5039490;28;20037;-80
2021/12/17 01:05:11;;;;;;;18.75;11.05;;;8.40;78.30;;;;;;5035073;28;20104;-80
2021/12/17 01:07:40;;;;;;;21.30;11.50;;;8.30;78.50;;;;;;5035539;28;20021;-79
2021/12/17 01:10:10;;;;;;;25.20;14.07;;;8.30;78.70;;;;;;5036037;28;20017;-80
2021/12/17 01:12:36;;;;;;;24.63;13.05;;;8.30;78.30;;;;;;5034058;28;20052;-80
2021/12/17 01:15:16;;;;;;;27.52;13.13;;;8.20;78.50;;;;;;5041103;28;20465;-80
2021/12/17 01:17:44;;;;;;;29.42;13.52;;;8.20;78.80;;;;;;5055429;28;20079;-80
2021/12/17 01:23:16;;;;;;;23.52;12.00;;;8.20;78.90;;;;;;5042395;28;20034;-80
2021/12/17 01:36:39;;;;;;;22.20;12.07;;;8.10;79.10;;;;;;5073154;28;20031;-80
2021/12/17 01:42:06;;;;;;;27.35;14.00;;;8.10;79.00;;;;;;5033394;28;20045;-80
2021/12/17 01:44:44;;;;;;;;;;;;;;;;;;;;;
2021/12/17 01:47:11;;;;;;;22.92;12.65;;;8.00;79.20;;;;;;5034957;28;20025;-80
2021/12/17 01:55:50;;;;;;;27.55;12.82;;;8.00;79.10;;;;;;5034614;28;20044;-80
2021/12/17 02:01:09;;;;;;;22.70;11.13;;;8.00;78.90;;;;;;5035157;28;20080;-80
2021/12/17 02:03:52;;;;;;;18.25;10.98;;;7.80;79.30;;;;;;5034913;28;20037;-80
2021/12/17 02:06:20;;;;;;;20.15;10.38;;;7.80;79.10;;;;;;5034760;28;20030;-80
2021/12/17 02:09:06;;;;;;;24.08;12.27;;;7.70;79.70;;;;;;5035747;28;20028;-80
2021/12/17 02:23:11;;;;;;;24.40;13.05;;;7.70;79.50;;;;;;5038685;28;20470;-80
2021/12/17 02:30:55;;;;;;;20.80;10.80;;;7.70;79.70;;;;;;5051376;28;20033;-80
2021/12/17 02:33:25;;;;;;;21.92;10.43;;;7.60;79.60;;;;;;5038225;28;20041;-80
2021/12/17 02:35:51;;;;;;;21.13;11.13;;;7.50;79.70;;;;;;5071314;28;20024;-80
2021/12/17 02:38:17;;;;;;;24.83;11.63;;;7.60;79.70;;;;;;5038879;28;20025;-80
2021/12/17 02:46:38;;;;;;;24.45;11.70;;;7.50;79.80;;;;;;5038630;28;20037;-80
2021/12/17 02:49:12;;;;;;;23.23;11.43;;;7.50;79.80;;;;;;5038264;28;20087;-80
2021/12/17 02:51:40;;;;;;;22.52;11.88;;;7.50;79.70;;;;;;5037767;28;20037;-80
2021/12/17 02:54:06;;;;;;;21.73;11.05;;;7.40;79.70;;;;;;5038199;28;20057;-80
2021/12/17 02:56:51;;;;;;;20.15;10.77;;;7.40;79.70;;;;;;5037941;28;20032;-80
2021/12/17 02:59:17;;;;;;;26.92;12.65;;;7.40;79.90;;;;;;5038192;28;20029;-80
2021/12/17 03:01:45;;;;;;;24.33;11.55;;;7.30;79.90;;;;;;5037942;28;20084;-80
2021/12/17 03:04:25;;;;;;;18.40;10.18;;;7.30;80.10;;;;;;5037828;28;20032;-80
2021/12/17 03:06:51;;;;;;;20.52;11.00;;;7.20;80.40;;;;;;5037588;28;20091;-80
2021/12/17 03:09:22;;;;;;;27.63;12.15;;;7.20;80.50;;;;;;5037755;28;20042;-80
2021/12/17 03:11:57;;;;;;;21.20;11.80;;;7.20;80.40;;;;;;5037857;28;20071;-80
2021/12/17 03:14:25;;;;;;;25.00;13.20;;;7.20;80.60;;;;;;5037643;28;20068;-80
2021/12/17 03:17:01;;;;;;;26.00;12.57;;;7.20;80.50;;;;;;5037585;28;20072;-80
2021/12/17 03:25:05;;;;;;;22.67;11.07;;;7.10;80.80;;;;;;5037665;28;20032;-80
2021/12/17 03:27:31;;;;;;;25.13;12.73;;;7.10;80.70;;;;;;5037179;28;20480;-80
2021/12/17 03:30:17;;;;;;;24.05;11.25;;;7.10;80.60;;;;;;5037677;28;20029;-80
2021/12/17 03:32:42;;;;;;;26.25;11.68;;;7.10;80.50;;;;;;5037166;28;20061;-79
2021/12/17 03:35:08;;;;;;;24.13;12.82;;;7.10;80.40;;;;;;5059263;28;20040;-79
2021/12/17 03:37:34;;;;;;;25.95;11.73;;;7.20;80.20;;;;;;5061885;28;20029;-79
2021/12/17 03:40:02;;;;;;;21.25;11.98;;;7.20;80.10;;;;;;5051945;28;20037;-80
2021/12/17 03:42:28;;;;;;;24.08;12.68;;;7.10;80.10;;;;;;5037010;28;20014;-80
2021/12/17 03:44:53;;;;;;;25.48;12.48;;;7.10;79.90;;;;;;5037214;28;20048;-79
2021/12/17 03:47:31;;;;;;;;;;;;;;;;;;;;;
2021/12/17 03:49:58;;;;;;;21.45;11.73;;;7.00;80.40;;;;;;5053467;28;20025;-80
2021/12/17 03:52:24;;;;;;;25.02;11.85;;;7.00;80.40;;;;;;5056918;28;20111;-80
2021/12/17 03:54:49;;;;;;;18.10;11.60;;;6.90;80.50;;;;;;5056893;28;20029;-80
2021/12/17 03:57:30;;;;;;;21.75;10.35;;;6.90;80.50;;;;;;5041251;28;20105;-80
2021/12/17 03:59:55;;;;;;;23.58;10.55;;;6.90;80.40;;;;;;5036776;28;20026;-79
2021/12/17 04:02:21;;;;;;;24.98;11.45;;;7.00;80.60;;;;;;5036658;28;20039;-80
2021/12/17 04:05:04;;;;;;;24.25;12.25;;;6.90;80.60;;;;;;5036911;28;20049;-80
2021/12/17 04:07:31;;;;;;;22.92;11.20;;;6.80;80.60;;;;;;5036774;28;20044;-79
2021/12/17 04:09:56;;;;;;;24.38;12.07;;;6.80;80.70;;;;;;5036755;28;20029;-80
2021/12/17 04:15:05;;;;;;;20.58;10.77;;;6.70;80.80;;;;;;5036526;28;20025;-79
2021/12/17 04:17:40;;;;;;;23.33;11.90;;;6.70;80.90;;;;;;5036409;28;20021;-80
2021/12/17 04:20:14;;;;;;;26.85;12.63;;;6.70;80.50;;;;;;5036287;28;20104;-79
2021/12/17 04:22:40;;;;;;;22.75;12.38;;;6.70;80.60;;;;;;5038667;28;20027;-80
2021/12/17 04:25:05;;;;;;;28.45;14.55;;;6.70;80.50;;;;;;5045420;28;20022;-79
2021/12/17 04:27:49;;;;;;;29.58;12.90;;;6.70;80.50;;;;;;5036400;28;20395;-80
2021/12/17 04:30:15;;;;;;;26.50;12.13;;;6.70;80.70;;;;;;5036388;28;20037;-80
2021/12/17 04:32:40;;;;;;;23.30;12.05;;;6.70;80.80;;;;;;5035517;28;20120;-79
2021/12/17 04:35:26;;;;;;;26.00;11.93;;;6.70;80.60;;;;;;5057448;28;20036;-80
2021/12/17 04:37:52;;;;;;;25.13;13.18;;;6.70;80.50;;;;;;5072239;28;20040;-80
2021/12/17 04:40:20;;;;;;;25.55;11.85;;;6.60;80.70;;;;;;5035814;28;20029;-80
2021/12/17 04:45:24;;;;;;;23.52;11.68;;;6.60;80.70;;;;;;5036026;28;20029;-80
2021/12/17 04:58:54;;;;;;;24.67;12.60;;;6.40;80.90;;;;;;5035561;28;20404;-80
2021/12/17 05:01:20;;;;;;;25.00;11.73;;;6.40;80.80;;;;;;5035785;28;20021;-80
2021/12/17 05:03:46;;;;;;;19.33;11.50;;;6.30;81.10;;;;;;5035724;28;20029;-79
2021/12/17 05:06:28;;;;;;;23.38;12.30;;;6.30;81.30;;;;;;5035639;28;20036;-79
2021/12/17 05:08:57;;;;;;;22.50;11.60;;;6.30;81.30;;;;;;5035770;28;20556;-79
2021/12/17 05:20:16;;;;;;;19.92;10.07;;;6.30;81.20;;;;;;5044700;28;20442;-80
2021/12/17 05:22:43;;;;;;;26.75;11.77;;;6.20;81.20;;;;;;5037650;28;20423;-78
2021/12/17 05:25:11;;;;;;;18.75;11.52;;;6.30;81.20;;;;;;5035399;28;20029;-81
2021/12/17 05:27:39;;;;;;;22.52;10.68;;;6.30;80.80;;;;;;5035236;28;20060;-81
2021/12/17 05:30:06;;;;;;;22.48;10.80;;;6.20;81.00;;;;;;5035443;28;20152;-79
2021/12/17 05:32:31;;;;;;;32.35;12.23;;;6.20;80.80;;;;;;5048171;28;20039;-79
2021/12/17 05:34:57;;;;;;;19.50;11.23;;;6.10;81.60;;;;;;5053900;28;20017;-81
2021/12/17 05:37:32;;;;;;;26.30;12.95;;;6.20;81.60;;;;;;5054104;28;20029;-81
2021/12/17 05:39:59;;;;;;;27.25;12.73;;;6.10;81.30;;;;;;5055024;28;20097;-81
2021/12/17 05:42:24;;;;;;;22.90;10.43;;;6.00;81.70;;;;;;5054847;28;20049;-83
2021/12/17 05:45:05;;;;;;;;;;;;;;;;;;;;;
2021/12/17 05:47:31;;;;;;;20.95;10.63;;;6.10;81.30;;;;;;5035910;28;20113;-83
2021/12/17 05:49:57;;;;;;;25.63;11.60;;;6.00;81.40;;;;;;5034121;28;20049;-81
2021/12/17 05:59:49;;;;;;;28.20;12.13;;;5.50;82.50;;;;;;5133116;27;20110;-82
2021/12/17 06:02:16;;;;;;;26.25;13.23;;;5.20;82.90;;;;;;5122247;28;20533;-82
2021/12/17 06:04:50;;;;;;;23.33;13.48;;;5.30;84.30;;;;;;5128390;28;20028;-82
2021/12/17 06:07:27;;;;;;;28.23;12.68;;;5.40;83.70;;;;;;5132549;28;20076;-85
2021/12/17 06:10:09;;;;;;;26.10;12.50;;;5.60;83.40;;;;;;5133226;28;20045;-86
2021/12/17 06:12:36;;;;;;;29.20;12.15;;;5.70;82.80;;;;;;5130183;27;20032;-85
2021/12/17 06:15:05;;;;;;;31.60;13.18;;;5.80;81.90;;;;;;5112572;28;20069;-89
2021/12/17 06:17:52;;;;;;;30.05;13.07;;;5.90;82.10;;;;;;5112110;28;20102;-89
2021/12/17 06:20:19;;;;;;;28.33;13.30;;;5.90;82.10;;;;;;5113545;28;20016;-92
2021/12/17 06:23:02;;;;;;;22.63;12.38;;;6.00;82.40;;;;;;5112489;28;20031;-80
2021/12/17 06:25:28;;;;;;;24.10;13.77;;;6.00;82.50;;;;;;5116363;28;20045;-89
2021/12/17 06:27:55;;;;;;;26.00;13.50;;;6.00;82.40;;;;;;5152470;27;20434;-81
2021/12/17 06:30:38;;;;;;;23.08;12.77;;;6.10;81.30;;;;;;5151920;27;20472;-83
2021/12/17 06:33:03;;;;;;;29.90;13.65;;;6.10;80.90;;;;;;5145078;27;20059;-85
2021/12/17 06:35:29;;;;;;;25.05;12.13;;;6.20;81.60;;;;;;5116903;27;20058;-84
2021/12/17 06:38:08;;;;;;;;;;;;;;;;;;;;;
2021/12/17 06:40:34;;;;;;;38.33;20.30;;;6.00;81.80;;;;;;5131211;28;20045;-91
2021/12/17 06:43:00;;;;;;;29.50;15.48;;;6.00;81.90;;;;;;5125719;28;20055;-91
2021/12/17 06:46:17;;;;;;;29.27;15.38;;;6.00;82.10;;;;;;5133432;28;20023;-90
2021/12/17 06:48:15;;;;;;;28.25;14.02;;;6.00;82.20;;;;;;5128785;27;20501;-90
2021/12/17 07:22:28;;;;;;;24.58;14.60;;;5.80;82.00;;;;;;5057680;28;20519;-92
2021/12/17 07:33:17;;;;;;;29.33;15.70;;;6.00;82.90;;;;;;5100024;28;20084;-90
2021/12/17 07:35:53;;;;;;;35.63;16.13;;;5.90;83.00;;;;;;5099854;28;20059;-91
2021/12/17 07:41:06;;;;;;;33.80;16.80;;;5.90;83.30;;;;;;5120201;28;20034;-89
2021/12/17 07:43:37;;;;;;;43.63;19.23;;;6.00;83.60;;;;;;5116652;28;20024;-90
2021/12/17 07:46:06;;;;;;;36.05;17.08;;;6.10;83.40;;;;;;5118675;28;20024;-90
2021/12/17 07:48:38;;;;;;;38.88;14.88;;;6.00;83.60;;;;;;5117562;28;20032;-89
2021/12/17 07:51:07;;;;;;;31.25;15.80;;;6.10;83.30;;;;;;5118068;28;20027;-90
2021/12/17 07:53:34;;;;;;;26.70;13.68;;;6.10;83.40;;;;;;5118454;28;20050;-90
2021/12/17 07:56:03;;;;;;;29.35;14.38;;;6.10;83.30;;;;;;5117370;28;20026;-89
2021/12/17 07:58:30;;;;;;;34.22;14.60;;;6.10;83.40;;;;;;5117794;28;20054;-90
2021/12/17 08:00:56;;;;;;;35.42;19.35;;;6.10;83.20;;;;;;5135333;27;20027;-89
2021/12/17 08:03:22;;;;;;;31.77;15.80;;;6.20;83.00;;;;;;5116973;28;20030;-90
2021/12/17 08:05:49;;;;;;;28.98;15.88;;;6.10;82.90;;;;;;5118951;28;20030;-91
2021/12/17 08:08:14;;;;;;;34.85;15.23;;;6.10;83.10;;;;;;5117873;28;20457;-90
2021/12/17 08:10:41;;;;;;;29.17;15.30;;;6.20;83.10;;;;;;5114002;28;20059;-90
2021/12/17 08:13:12;;;;;;;27.60;13.05;;;6.00;82.90;;;;;;5097506;28;20036;-90
2021/12/17 08:15:46;;;;;;;35.67;17.70;;;6.10;83.20;;;;;;5097149;28;20035;-89
2021/12/17 08:28:24;;;;;;;33.45;16.02;;;6.20;82.80;;;;;;5098284;28;20039;-89
2021/12/17 08:30:50;;;;;;;34.95;16.15;;;6.20;83.00;;;;;;5096864;28;20024;-90
2021/12/17 08:33:20;;;;;;;29.55;13.07;;;6.20;82.90;;;;;;5096859;28;20032;-89
2021/12/17 08:35:46;;;;;;;32.13;16.20;;;6.30;82.90;;;;;;5097462;28;20020;-89
2021/12/17 08:38:11;;;;;;;34.60;16.40;;;6.30;82.60;;;;;;5113701;28;20043;-88
2021/12/17 08:40:38;;;;;;;28.70;14.88;;;6.30;82.40;;;;;;5096385;28;20031;-89
2021/12/17 08:43:04;;;;;;;30.85;16.20;;;6.40;82.50;;;;;;5101519;28;20031;-89
2021/12/17 08:45:30;;;;;;;32.95;15.30;;;6.50;82.40;;;;;;5117082;28;20024;-89
2021/12/17 08:47:56;;;;;;;36.13;15.85;;;6.40;82.10;;;;;;5114260;28;20035;-90
2021/12/17 08:50:22;;;;;;;37.00;17.55;;;6.40;82.00;;;;;;5113487;28;20034;-90
2021/12/17 08:52:48;;;;;;;35.88;18.40;;;6.50;82.20;;;;;;5113157;28;20052;-89
2021/12/17 08:55:14;;;;;;;43.67;17.20;;;6.60;82.00;;;;;;5112990;28;20020;-90
2021/12/17 08:57:40;;;;;;;44.13;19.48;;;6.60;82.20;;;;;;5116207;28;20053;-89
2021/12/17 09:00:09;;;;;;;34.72;18.10;;;6.70;82.30;;;;;;5116553;28;20047;-89
2021/12/17 09:02:36;;;;;;;46.15;20.33;;;6.70;82.40;;;;;;5109694;28;20031;-88
2021/12/17 09:05:07;;;;;;;38.38;17.83;;;6.70;82.80;;;;;;5112821;28;20039;-90
2021/12/17 09:07:33;;;;;;;38.60;18.70;;;6.80;83.10;;;;;;5095684;28;20367;-89
2021/12/17 09:09:59;;;;;;;39.97;19.70;;;6.80;83.00;;;;;;5095933;28;20028;-90
2021/12/17 09:12:25;;;;;;;37.47;18.10;;;6.90;83.00;;;;;;5095612;28;20016;-91
2021/12/17 09:14:50;;;;;;;33.15;15.70;;;7.10;82.80;;;;;;5095452;28;20028;-89
2021/12/17 09:17:18;;;;;;;38.10;17.88;;;7.10;83.00;;;;;;5095169;28;20035;-89
2021/12/17 09:19:44;;;;;;;45.85;19.83;;;7.10;83.00;;;;;;5112844;28;20024;-91
2021/12/17 09:22:10;;;;;;;37.28;17.67;;;7.20;83.30;;;;;;5112740;27;20023;-89
2021/12/17 09:24:35;;;;;;;35.38;19.88;;;7.30;83.10;;;;;;5095853;28;20028;-90
2021/12/17 09:27:01;;;;;;;32.38;17.48;;;7.30;82.90;;;;;;5095218;28;20021;-90
2021/12/17 09:29:27;;;;;;;39.22;19.10;;;7.40;82.70;;;;;;5096773;28;20031;-89
2021/12/17 09:31:53;;;;;;;40.85;18.40;;;7.50;82.60;;;;;;5112463;28;20028;-87
2021/12/17 09:34:18;;;;;;;34.22;16.77;;;7.60;82.30;;;;;;5116084;28;20067;-89
2021/12/17 09:36:44;;;;;;;35.42;16.02;;;7.60;82.30;;;;;;5116319;28;20030;-87
2021/12/17 09:39:10;;;;;;;35.00;17.52;;;7.70;82.00;;;;;;5103519;28;20024;-89
2021/12/17 09:41:36;;;;;;;33.83;17.27;;;7.80;81.80;;;;;;5112745;28;20036;-91
2021/12/17 09:44:02;;;;;;;34.50;18.17;;;7.90;81.90;;;;;;5125812;27;20057;-89
2021/12/17 09:46:28;;;;;;;32.42;17.60;;;7.90;81.60;;;;;;5116106;28;20027;-90
2021/12/17 09:48:54;;;;;;;35.20;17.27;;;8.00;81.50;;;;;;5117003;28;20023;-90
2021/12/17 09:51:20;;;;;;;34.92;18.52;;;8.10;81.50;;;;;;5115870;28;20034;-89
2021/12/17 09:53:47;;;;;;;37.17;17.50;;;8.10;81.20;;;;;;5117053;28;20438;-90
2021/12/17 09:56:13;;;;;;;33.17;16.63;;;8.20;81.10;;;;;;5116164;28;20043;-91
2021/12/17 09:58:39;;;;;;;41.13;17.13;;;8.20;80.90;;;;;;5102284;28;20044;-91
2021/12/17 10:01:05;;;;;;;27.65;14.80;;;8.30;81.00;;;;;;5112540;28;20023;-89
2021/12/17 10:03:31;;;;;;;53.28;26.23;;;8.30;80.60;;;;;;5095357;28;20028;-90
2021/12/17 10:05:57;;;;;;;41.90;20.13;;;8.40;80.30;;;;;;5095502;28;20382;-90
2021/12/17 10:08:24;;;;;;;42.47;17.17;;;8.50;80.20;;;;;;5097271;28;20024;-90
2021/12/17 10:11:01;;;;;;;31.33;16.27;;;8.50;80.20;;;;;;5095209;28;20069;-91
2021/12/17 10:13:33;;;;;;;34.58;17.10;;;8.50;80.00;;;;;;5095354;28;20090;-89
2021/12/17 10:16:01;;;;;;;29.77;15.82;;;8.60;79.80;;;;;;5095179;28;20020;-90
2021/12/17 10:18:40;;;;;;;28.92;14.93;;;8.70;79.80;;;;;;5095181;28;20039;-90
2021/12/17 10:21:07;;;;;;;31.67;15.43;;;8.70;79.80;;;;;;5112461;28;20032;-89
2021/12/17 10:23:34;;;;;;;31.30;15.07;;;8.80;79.60;;;;;;5095619;28;20047;-90
2021/12/17 10:26:01;;;;;;;27.85;14.93;;;8.80;79.50;;;;;;5094694;28;20025;-90
2021/12/17 10:28:28;;;;;;;30.55;14.90;;;8.90;79.40;;;;;;5095079;28;20146;-86
2021/12/17 10:30:57;;;;;;;34.22;15.70;;;9.00;79.50;;;;;;5095170;28;20028;-89
2021/12/17 10:33:27;;;;;;;29.50;15.25;;;9.00;79.10;;;;;;5094887;28;20032;-92
2021/12/17 10:35:55;;;;;;;30.33;14.77;;;9.10;79.10;;;;;;5095508;28;20036;-88
2021/12/17 10:38:25;;;;;;;30.27;15.15;;;9.20;79.00;;;;;;5095148;28;20052;-87
2021/12/17 10:41:07;;;;;;;34.35;15.27;;;9.20;78.80;;;;;;5107579;28;20062;-91
2021/12/17 10:43:43;;;;;;;32.05;15.70;;;9.30;78.80;;;;;;5104463;28;20023;-88
2021/12/17 10:46:22;;;;;;;26.25;13.55;;;9.40;78.50;;;;;;5118986;28;20115;-86
2021/12/17 10:49:34;;;;;;;33.85;16.27;;;9.50;78.50;;;;;;5115668;28;20047;-88
2021/12/17 10:54:20;;;;;;;32.35;17.10;;;9.60;77.90;;;;;;5100725;28;20068;-89
2021/12/17 10:56:52;;;;;;;30.23;18.10;;;9.60;77.60;;;;;;5098761;28;20028;-90
2021/12/17 10:59:23;;;;;;;25.38;13.25;;;9.60;77.70;;;;;;5098399;28;20067;-89
2021/12/17 11:01:55;;;;;;;31.35;15.73;;;9.70;78.00;;;;;;5098929;28;20024;-89
2021/12/17 11:04:21;;;;;;;27.30;14.88;;;9.70;77.40;;;;;;5098872;28;20020;-91
2021/12/17 11:07:04;;;;;;;28.80;13.52;;;9.70;77.20;;;;;;5100461;28;20425;-90
2021/12/17 11:09:50;;;;;;;22.52;12.35;;;9.80;76.80;;;;;;5098472;28;20588;-89
2021/12/17 11:12:17;;;;;;;29.30;15.10;;;9.80;76.90;;;;;;5100564;28;20036;-91
2021/12/17 11:14:44;;;;;;;27.73;13.55;;;9.90;77.00;;;;;;5118983;28;20035;-90
2021/12/17 11:17:11;;;;;;;29.77;14.45;;;10.00;76.60;;;;;;5118884;28;20034;-88
2021/12/17 11:19:38;;;;;;;28.67;13.35;;;10.00;76.30;;;;;;5118824;28;20023;-90
2021/12/17 11:22:04;;;;;;;33.63;14.88;;;10.00;76.30;;;;;;5118280;28;20405;-88
2021/12/17 11:24:32;;;;;;;31.90;15.88;;;10.10;76.40;;;;;;5118810;28;20111;-90
2021/12/17 11:26:59;;;;;;;28.95;14.82;;;10.20;76.50;;;;;;5117311;28;20512;-89
2021/12/17 11:29:26;;;;;;;23.70;12.18;;;10.20;76.60;;;;;;5118412;28;20110;-90
2021/12/17 11:31:52;;;;;;;25.23;12.75;;;10.20;76.00;;;;;;5120371;28;20492;-89
2021/12/17 11:34:18;;;;;;;27.95;13.27;;;10.20;75.70;;;;;;5113980;28;20111;-88
2021/12/17 11:36:45;;;;;;;34.30;16.20;;;10.30;75.80;;;;;;5098119;28;20432;-91
2021/12/17 11:39:21;;;;;;;27.38;13.80;;;10.30;75.80;;;;;;5098003;28;20028;-89
2021/12/17 11:42:29;;;;;;;34.33;17.38;;;10.30;75.50;;;;;;5114616;28;20028;-89
2021/12/17 11:47:46;;;;;;;31.55;15.07;;;10.30;75.60;;;;;;5116557;28;20137;-89
2021/12/17 11:50:16;;;;;;;27.60;15.75;;;10.40;75.60;;;;;;5135209;27;20051;-88
2021/12/17 11:52:46;;;;;;;27.05;15.00;;;10.40;74.90;;;;;;5116224;28;20058;-88
2021/12/17 11:55:33;;;;;;;31.75;15.88;;;10.40;75.30;;;;;;5118642;28;20024;-87
2021/12/17 11:58:02;;;;;;;28.42;13.35;;;10.40;75.20;;;;;;5109594;28;20080;-89
2021/12/17 12:00:39;;;;;;;26.65;13.45;;;10.50;75.10;;;;;;5113891;28;20024;-89
2021/12/17 12:03:19;;;;;;;26.55;13.23;;;10.50;75.10;;;;;;5109494;28;20028;-88
2021/12/17 12:05:46;;;;;;;;;;;10.50;75.20;;;;;;5116536;28;20038;-88
2021/12/17 12:08:37;;;;;;;22.77;12.68;;;10.50;75.10;;;;;;5096434;28;19908;-88
2021/12/17 12:11:25;;;;;;;27.95;15.30;;;10.50;74.70;;;;;;5105249;28;20028;-88
2021/12/17 12:13:53;;;;;;;30.58;14.98;;;10.60;74.80;;;;;;5116840;28;20032;-87
2021/12/17 12:16:19;;;;;;;32.00;16.45;;;10.50;74.80;;;;;;5112388;28;20032;-89
2021/12/17 12:19:07;;;;;;;30.33;13.77;;;10.50;74.80;;;;;;5113120;28;20028;-89
2021/12/17 12:21:35;;;;;;;32.13;15.68;;;10.60;75.10;;;;;;5096440;28;20051;-88
2021/12/17 12:24:12;;;;;;;30.02;14.02;;;10.70;74.70;;;;;;5096233;28;20020;-87
2021/12/17 12:26:49;;;;;;;25.10;12.90;;;10.60;74.50;;;;;;5096827;28;20024;-89
2021/12/17 12:29:16;;;;;;;31.25;16.15;;;10.60;75.00;;;;;;5097230;28;20421;-89
2021/12/17 12:31:50;;;;;;;31.92;15.30;;;10.60;74.90;;;;;;5105501;28;20028;-88
2021/12/17 12:34:20;;;;;;;34.65;16.33;;;10.60;74.70;;;;;;5116500;28;20024;-88
2021/12/17 12:37:04;;;;;;;26.98;14.73;;;10.40;75.20;;;;;;5116184;28;20160;-89
2021/12/17 12:39:43;;;;;;;25.98;13.05;;;10.50;75.00;;;;;;5111754;28;20069;-89
2021/12/17 12:42:16;;;;;;;23.60;13.82;;;10.50;75.20;;;;;;5095756;28;20031;-88
2021/12/17 12:44:42;;;;;;;29.02;14.80;;;10.50;74.50;;;;;;5101335;28;20478;-89
2021/12/17 12:47:11;;;;;;;22.02;12.07;;;10.50;74.80;;;;;;5096849;28;20050;-88
2021/12/17 12:49:47;;;;;;;25.75;11.70;;;10.40;75.30;;;;;;5112690;28;20485;-88
2021/12/17 12:52:32;;;;;;;28.65;13.20;;;10.30;75.20;;;;;;5112306;28;20024;-87
2021/12/17 12:55:02;;;;;;;23.10;11.85;;;10.10;75.90;;;;;;5111912;28;20032;-86
2021/12/17 12:57:31;;;;;;;30.98;14.95;;;10.00;76.20;;;;;;5111836;28;20535;-87
2021/12/17 13:00:01;;;;;;;30.10;14.82;;;9.90;76.40;;;;;;5096508;28;20111;-87
2021/12/17 13:02:27;;;;;;;34.08;15.35;;;9.90;76.60;;;;;;5096536;28;20024;-87
2021/12/17 13:04:58;;;;;;;24.67;15.38;;;9.90;76.70;;;;;;5096695;28;20020;-87
2021/12/17 13:07:54;;;;;;;30.15;14.68;;;10.00;76.40;;;;;;5094581;28;20027;-88
2021/12/17 13:10:23;;;;;;;31.08;14.13;;;10.10;76.30;;;;;;5093797;28;20078;-89
2021/12/17 13:12:59;;;;;;;23.92;11.65;;;10.20;76.20;;;;;;5094786;28;20024;-88
2021/12/17 13:23:49;;;;;;;23.15;12.50;;;10.10;76.40;;;;;;5096340;28;20046;-88
2021/12/17 13:26:18;;;;;;;23.35;13.00;;;10.00;76.60;;;;;;5096188;28;20027;-87
2021/12/17 13:28:59;;;;;;;22.98;12.35;;;9.90;76.90;;;;;;5094299;28;20028;-88
2021/12/17 13:32:10;;;;;;;25.45;11.98;;;9.90;77.20;;;;;;5094530;28;20051;-87
2021/12/17 13:34:45;;;;;;;22.45;11.40;;;9.80;77.10;;;;;;5105790;27;20047;-88
2021/12/17 13:37:16;;;;;;;23.88;11.48;;;9.70;77.20;;;;;;5136052;27;20027;-88
2021/12/17 13:40:02;;;;;;;27.10;12.88;;;9.80;77.80;;;;;;5135695;27;20031;-89
2021/12/17 13:42:30;;;;;;;20.00;9.80;;;9.80;77.70;;;;;;5094853;28;20032;-88
2021/12/17 13:45:00;;;;;;;24.50;12.05;;;9.90;77.80;;;;;;5095761;28;20065;-88
2021/12/17 13:47:28;;;;;;;29.75;14.80;;;9.90;77.60;;;;;;5096218;28;20028;-88
2021/12/17 13:49:59;;;;;;;29.67;13.82;;;10.00;77.50;;;;;;5096310;28;20390;-87
2021/12/17 13:52:26;;;;;;;;;;;9.90;77.40;;;;;;5096273;28;20024;-88
2021/12/17 13:54:54;;;;;;;29.70;12.98;;;10.00;77.60;;;;;;5094578;28;19904;-89
2021/12/17 13:57:24;;;;;;;29.17;13.10;;;10.00;77.40;;;;;;5095610;28;20051;-88
2021/12/17 13:59:50;;;;;;;31.95;15.13;;;9.80;77.50;;;;;;5095824;28;20048;-87
2021/12/17 14:02:21;;;;;;;22.17;12.43;;;9.70;78.20;;;;;;5095462;28;20026;-87
2021/12/17 14:05:05;;;;;;;24.92;13.15;;;9.70;78.80;;;;;;5094155;28;20506;-87
2021/12/17 14:07:33;;;;;;;25.98;12.60;;;9.70;78.80;;;;;;5101447;28;20069;-87
2021/12/17 14:10:03;;;;;;;22.25;10.48;;;9.70;78.90;;;;;;5114825;28;20759;-88
2021/12/17 14:12:32;;;;;;;26.73;12.73;;;9.70;78.70;;;;;;5115789;28;20016;-88
2021/12/17 14:15:00;;;;;;;25.73;11.88;;;9.60;79.20;;;;;;5115720;28;20038;-87
2021/12/17 14:17:33;;;;;;;24.35;11.90;;;9.70;79.20;;;;;;5117092;28;20032;-88
2021/12/17 14:20:09;;;;;;;30.83;13.30;;;9.70;79.20;;;;;;5112895;28;20028;-88
2021/12/17 14:22:38;;;;;;;18.80;10.05;;;9.80;78.70;;;;;;5099687;28;20028;-87
2021/12/17 14:25:24;;;;;;;20.27;11.10;;;9.60;78.70;;;;;;5110772;28;20130;-86
2021/12/17 14:27:50;;;;;;;22.27;10.60;;;9.60;79.60;;;;;;5119716;28;20076;-87
2021/12/17 14:30:21;;;;;;;24.80;11.32;;;9.70;79.10;;;;;;5118417;28;20027;-87
2021/12/17 14:32:47;;;;;;;22.60;11.68;;;9.60;79.20;;;;;;5135727;27;20762;-88
2021/12/17 14:35:13;;;;;;;23.58;11.52;;;9.50;79.70;;;;;;5102678;28;20028;-87
2021/12/17 14:38:06;;;;;;;24.02;10.80;;;9.50;79.90;;;;;;5099477;28;20024;-88
2021/12/17 14:40:56;;;;;;;19.90;11.65;;;9.50;79.70;;;;;;5111981;28;20032;-87
2021/12/17 14:43:22;;;;;;;19.50;10.20;;;9.50;79.60;;;;;;5105276;28;20036;-87
2021/12/17 14:45:57;;;;;;;22.85;11.45;;;9.50;79.80;;;;;;5119407;28;20026;-87
2021/12/17 14:48:35;;;;;;;19.05;9.52;;;9.60;79.70;;;;;;5119109;28;20487;-87
2021/12/17 15:04:38;;;;;;;27.10;13.93;;;9.30;80.50;;;;;;5098485;28;20021;-87
2021/12/17 15:07:04;;;;;;;21.15;10.98;;;9.40;80.20;;;;;;5098307;28;20107;-87
2021/12/17 15:09:33;;;;;;;17.20;8.48;;;9.50;80.20;;;;;;5097274;28;20054;-87
2021/12/17 15:12:01;;;;;;;26.92;12.88;;;9.50;79.80;;;;;;5098148;28;20437;-88
2021/12/17 15:14:26;;;;;;;22.85;10.73;;;9.50;79.80;;;;;;5098323;28;20026;-86
2021/12/17 15:16:53;;;;;;;22.13;8.63;;;9.50;79.90;;;;;;5097937;28;20115;-86
2021/12/17 15:19:19;;;;;;;17.48;8.90;;;9.50;79.70;;;;;;5096631;28;20032;-87
2021/12/17 15:21:44;;;;;;;22.35;10.75;;;9.40;80.00;;;;;;5098281;28;20024;-87
2021/12/17 15:24:10;;;;;;;21.80;10.52;;;9.30;79.80;;;;;;5097821;28;20034;-87
2021/12/17 15:26:36;;;;;;;16.85;8.80;;;9.30;80.10;;;;;;5113637;28;20024;-86
2021/12/17 15:29:02;;;;;;;19.15;9.65;;;9.40;80.20;;;;;;5106766;28;20034;-87
2021/12/17 15:31:27;;;;;;;27.55;11.40;;;9.40;79.70;;;;;;5115748;28;20027;-88
2021/12/17 15:33:53;;;;;;;22.25;10.13;;;9.40;80.10;;;;;;5114528;27;20398;-88
2021/12/17 15:36:18;;;;;;;20.27;8.70;;;9.30;80.10;;;;;;5115486;27;20028;-89
2021/12/17 15:38:44;;;;;;;20.92;9.88;;;9.40;80.30;;;;;;5098291;28;20024;-88
2021/12/17 15:41:10;;;;;;;24.13;10.63;;;9.30;80.30;;;;;;5098305;28;20175;-86
2021/12/17 15:43:35;;;;;;;22.95;10.27;;;9.30;80.40;;;;;;5108582;28;20031;-90
2021/12/17 15:46:01;;;;;;;20.00;11.43;;;9.40;80.30;;;;;;5115652;28;20103;-81
2021/12/17 15:48:27;;;;;;;23.13;11.25;;;9.40;80.00;;;;;;5116367;28;20023;-90
2021/12/17 15:50:52;;;;;;;18.23;8.45;;;9.40;80.10;;;;;;5113818;28;20063;-79
2021/12/17 15:53:18;;;;;;;20.75;9.27;;;9.30;80.00;;;;;;5115666;28;20031;-80
2021/12/17 15:55:44;;;;;;;20.35;9.20;;;9.40;80.30;;;;;;5117456;28;20039;-79
2021/12/17 15:58:12;;;;;;;18.42;9.68;;;9.30;80.10;;;;;;5114094;28;20036;-80
2021/12/17 16:00:40;;;;;;;20.38;9.43;;;9.40;80.30;;;;;;5114974;28;20016;-80
2021/12/17 16:03:08;;;;;;;26.38;12.13;;;9.30;80.30;;;;;;5116565;28;20031;-80
2021/12/17 16:05:34;;;;;;;20.65;10.60;;;9.30;80.30;;;;;;5116662;28;20462;-80
2021/12/17 16:08:00;;;;;;;18.98;9.30;;;9.20;80.50;;;;;;5114076;28;20050;-80
2021/12/17 16:21:17;;;;;;;28.13;10.93;;;9.20;80.80;;;;;;5114970;28;20035;-80
2021/12/17 16:23:49;;;;;;;25.40;12.25;;;9.20;81.10;;;;;;5116666;28;20023;-80
2021/12/17 16:26:17;;;;;;;23.30;11.20;;;9.20;81.00;;;;;;5116730;28;20016;-80
2021/12/17 16:28:47;;;;;;;26.42;11.55;;;9.20;81.40;;;;;;5117010;28;20024;-80